sensor_id;sensor_type;location;lat;lon;timestamp;pressure;altitude;pressure_sealevel;temperature;humidity
61506;BME280;47366;51.916;4.574;2023-02-21T00:00:25;102252.03;;;7.64;100.00
61506;BME280;47366;51.916;4.574;2023-02-21T00:03:09;102254.59;;;7.69;100.00
61506;BME280;47366;51.916;4.574;2023-02-21T00:05:52;102252.00;;;7.66;100.00
61506;BME280;47366;51.916;4.574;2023-02-21T00:08:36;102245.72;;;7.65;100.00
61506;BME280;47366;51.916;4.574;2023-02-21T00:11:20;102251.97;;;7.68;100.00
61506;BME280;47366;51.916;4.574;2023-02-21T00:14:04;102240.38;;;7.64;100.00
61506;BME280;47366;51.916;4.574;2023-02-21T00:16:48;102249.31;;;7.66;100.00
61506;BME280;47366;51.916;4.574;2023-02-21T00:19:32;102247.56;;;7.63;100.00
61506;BME280;47366;51.916;4.574;2023-02-21T00:22:16;102257.41;;;7.66;100.00
61506;BME280;47366;51.916;4.574;2023-02-21T00:25:00;102258.25;;;7.68;100.00
61506;BME280;47366;51.916;4.574;2023-02-21T00:27:44;102260.94;;;7.68;100.00
61506;BME280;47366;51.916;4.574;2023-02-21T00:30:28;102255.56;;;7.66;100.00
61506;BME280;47366;51.916;4.574;2023-02-21T00:33:12;102260.09;;;7.66;100.00
61506;BME280;47366;51.916;4.574;2023-02-21T00:35:56;102258.28;;;7.66;100.00
61506;BME280;47366;51.916;4.574;2023-02-21T00:38:40;102265.44;;;7.68;100.00
61506;BME280;47366;51.916;4.574;2023-02-21T00:41:23;102248.34;;;7.69;100.00
61506;BME280;47366;51.916;4.574;2023-02-21T00:44:08;102251.13;;;7.65;100.00
61506;BME280;47366;51.916;4.574;2023-02-21T00:46:52;102244.78;;;7.66;100.00
61506;BME280;47366;51.916;4.574;2023-02-21T00:49:36;102248.44;;;7.65;100.00
61506;BME280;47366;51.916;4.574;2023-02-21T00:52:20;102244.75;;;7.68;100.00
61506;BME280;47366;51.916;4.574;2023-02-21T00:55:04;102245.63;;;7.69;100.00
61506;BME280;47366;51.916;4.574;2023-02-21T00:57:48;102245.59;;;7.70;100.00
61506;BME280;47366;51.916;4.574;2023-02-21T01:00:32;102247.34;;;7.71;100.00
61506;BME280;47366;51.916;4.574;2023-02-21T01:03:16;102241.97;;;7.71;100.00
61506;BME280;47366;51.916;4.574;2023-02-21T01:06:00;102235.59;;;7.74;100.00
61506;BME280;47366;51.916;4.574;2023-02-21T01:08:45;102225.78;;;7.71;100.00
61506;BME280;47366;51.916;4.574;2023-02-21T01:11:30;102228.44;;;7.73;100.00
61506;BME280;47366;51.916;4.574;2023-02-21T01:14:14;102224.81;;;7.74;100.00
61506;BME280;47366;51.916;4.574;2023-02-21T01:16:58;102221.22;;;7.75;100.00
61506;BME280;47366;51.916;4.574;2023-02-21T01:19:42;102210.53;;;7.70;100.00
61506;BME280;47366;51.916;4.574;2023-02-21T01:22:27;102220.38;;;7.73;100.00
61506;BME280;47366;51.916;4.574;2023-02-21T01:25:11;102214.97;;;7.73;100.00
61506;BME280;47366;51.916;4.574;2023-02-21T01:27:55;102218.53;;;7.73;100.00
61506;BME280;47366;51.916;4.574;2023-02-21T01:30:39;102212.19;;;7.76;100.00
61506;BME280;47366;51.916;4.574;2023-02-21T01:33:23;102215.81;;;7.75;100.00
61506;BME280;47366;51.916;4.574;2023-02-21T01:36:07;102214.88;;;7.76;100.00
61506;BME280;47366;51.916;4.574;2023-02-21T01:38:51;102208.50;;;7.78;100.00
61506;BME280;47366;51.916;4.574;2023-02-21T01:41:35;102209.47;;;7.76;100.00
61506;BME280;47366;51.916;4.574;2023-02-21T01:44:39;102202.25;;;7.76;100.00
61506;BME280;47366;51.916;4.574;2023-02-21T01:47:24;102206.81;;;7.74;100.00
61506;BME280;47366;51.916;4.574;2023-02-21T01:50:13;102208.53;;;7.77;100.00
61506;BME280;47366;51.916;4.574;2023-02-21T01:53:00;102205.09;;;7.72;100.00
61506;BME280;47366;51.916;4.574;2023-02-21T01:55:46;102201.47;;;7.73;100.00
61506;BME280;47366;51.916;4.574;2023-02-21T01:58:31;102204.00;;;7.79;100.00
61506;BME280;47366;51.916;4.574;2023-02-21T02:01:28;102203.09;;;7.78;100.00
61506;BME280;47366;51.916;4.574;2023-02-21T02:04:14;102210.19;;;7.82;100.00
61506;BME280;47366;51.916;4.574;2023-02-21T02:06:58;102202.03;;;7.84;100.00
61506;BME280;47366;51.916;4.574;2023-02-21T02:09:42;102198.47;;;7.83;100.00
61506;BME280;47366;51.916;4.574;2023-02-21T02:35:38;102178.81;;;7.80;100.00
61506;BME280;47366;51.916;4.574;2023-02-21T02:38:35;102170.78;;;7.77;100.00
61506;BME280;47366;51.916;4.574;2023-02-21T02:41:21;102174.38;;;7.77;100.00
61506;BME280;47366;51.916;4.574;2023-02-21T02:43:54;102171.63;;;7.79;100.00
61506;BME280;47366;51.916;4.574;2023-02-21T02:46:29;102172.56;;;7.78;100.00
61506;BME280;47366;51.916;4.574;2023-02-21T02:49:06;102163.59;;;7.77;100.00
61506;BME280;47366;51.916;4.574;2023-02-21T02:51:34;102168.16;;;7.75;100.00
61506;BME280;47366;51.916;4.574;2023-02-21T02:54:00;102172.59;;;7.76;100.00
61506;BME280;47366;51.916;4.574;2023-02-21T02:56:25;102165.38;;;7.77;100.00
61506;BME280;47366;51.916;4.574;2023-02-21T02:59:07;102162.69;;;7.77;100.00
61506;BME280;47366;51.916;4.574;2023-02-21T03:14:59;102161.78;;;7.78;100.00
61506;BME280;47366;51.916;4.574;2023-02-21T03:17:29;102156.38;;;7.78;100.00
61506;BME280;47366;51.916;4.574;2023-02-21T03:19:57;102155.50;;;7.77;100.00
61506;BME280;47366;51.916;4.574;2023-02-21T03:22:27;102162.66;;;7.78;100.00
61506;BME280;47366;51.916;4.574;2023-02-21T03:24:55;102161.72;;;7.79;100.00
61506;BME280;47366;51.916;4.574;2023-02-21T03:27:24;102164.47;;;7.78;100.00
61506;BME280;47366;51.916;4.574;2023-02-21T03:29:52;102165.34;;;7.78;100.00
61506;BME280;47366;51.916;4.574;2023-02-21T03:35:09;102154.66;;;7.75;100.00
61506;BME280;47366;51.916;4.574;2023-02-21T03:37:55;102154.59;;;7.77;100.00
61506;BME280;47366;51.916;4.574;2023-02-21T03:40:32;102168.94;;;7.79;100.00
61506;BME280;47366;51.916;4.574;2023-02-21T03:42:59;102159.00;;;7.79;100.00
61506;BME280;47366;51.916;4.574;2023-02-21T03:45:24;102152.75;;;7.79;100.00
61506;BME280;47366;51.916;4.574;2023-02-21T03:47:50;102149.19;;;7.77;100.00
61506;BME280;47366;51.916;4.574;2023-02-21T03:50:15;102151.91;;;7.77;100.00
61506;BME280;47366;51.916;4.574;2023-02-21T03:52:40;102157.28;;;7.77;100.00
61506;BME280;47366;51.916;4.574;2023-02-21T03:55:07;102152.03;;;7.72;100.00
61506;BME280;47366;51.916;4.574;2023-02-21T03:57:33;102154.66;;;7.75;100.00
61506;BME280;47366;51.916;4.574;2023-02-21T03:59:58;102152.84;;;7.76;100.00
61506;BME280;47366;51.916;4.574;2023-02-21T04:02:23;102153.78;;;7.75;100.00
61506;BME280;47366;51.916;4.574;2023-02-21T04:04:49;102143.03;;;7.73;100.00
61506;BME280;47366;51.916;4.574;2023-02-21T04:07:15;102158.19;;;7.77;100.00
61506;BME280;47366;51.916;4.574;2023-02-21T04:09:41;102154.59;;;7.77;100.00
61506;BME280;47366;51.916;4.574;2023-02-21T04:12:07;102156.38;;;7.78;100.00
61506;BME280;47366;51.916;4.574;2023-02-21T04:14:32;102154.59;;;7.77;100.00
61506;BME280;47366;51.916;4.574;2023-02-21T04:16:57;102145.59;;;7.78;100.00
61506;BME280;47366;51.916;4.574;2023-02-21T04:19:23;102143.81;;;7.77;100.00
61506;BME280;47366;51.916;4.574;2023-02-21T04:21:48;102151.00;;;7.78;100.00
61506;BME280;47366;51.916;4.574;2023-02-21T04:24:13;102154.59;;;7.77;100.00
61506;BME280;47366;51.916;4.574;2023-02-21T04:26:39;102146.56;;;7.75;100.00
61506;BME280;47366;51.916;4.574;2023-02-21T04:29:04;102149.13;;;7.80;100.00
61506;BME280;47366;51.916;4.574;2023-02-21T04:31:30;102149.16;;;7.78;100.00
61506;BME280;47366;51.916;4.574;2023-02-21T04:33:57;102156.28;;;7.81;100.00
61506;BME280;47366;51.916;4.574;2023-02-21T04:36:22;102157.22;;;7.80;100.00
61506;BME280;47366;51.916;4.574;2023-02-21T04:38:47;102156.25;;;7.82;100.00
61506;BME280;47366;51.916;4.574;2023-02-21T04:41:15;102140.09;;;7.81;100.00
61506;BME280;47366;51.916;4.574;2023-02-21T04:43:44;102138.25;;;7.83;100.00
61506;BME280;47366;51.916;4.574;2023-02-21T04:46:11;102129.28;;;7.82;100.00
61506;BME280;47366;51.916;4.574;2023-02-21T04:48:41;102128.31;;;7.85;100.00
61506;BME280;47366;51.916;4.574;2023-02-21T04:51:06;102138.22;;;7.84;100.00
61506;BME280;47366;51.916;4.574;2023-02-21T04:53:32;102136.38;;;7.85;100.00
61506;BME280;47366;51.916;4.574;2023-02-21T04:55:57;102139.13;;;7.83;100.00
61506;BME280;47366;51.916;4.574;2023-02-21T04:58:22;102134.53;;;7.87;100.00
61506;BME280;47366;51.916;4.574;2023-02-21T05:00:48;102127.41;;;7.84;100.00
61506;BME280;47366;51.916;4.574;2023-02-21T05:03:13;102134.53;;;7.87;100.00
61506;BME280;47366;51.916;4.574;2023-02-21T05:05:38;102123.75;;;7.87;100.00
61506;BME280;47366;51.916;4.574;2023-02-21T05:08:04;102123.81;;;7.84;100.00
61506;BME280;47366;51.916;4.574;2023-02-21T05:10:29;102132.81;;;7.84;100.00
61506;BME280;47366;51.916;4.574;2023-02-21T05:12:54;102128.25;;;7.86;100.00
61506;BME280;47366;51.916;4.574;2023-02-21T05:15:20;102133.69;;;7.85;100.00
61506;BME280;47366;51.916;4.574;2023-02-21T05:17:45;102124.78;;;7.81;100.00
61506;BME280;47366;51.916;4.574;2023-02-21T05:20:11;102127.41;;;7.84;100.00
61506;BME280;47366;51.916;4.574;2023-02-21T05:22:38;102131.88;;;7.85;100.00
61506;BME280;47366;51.916;4.574;2023-02-21T05:25:15;102128.41;;;7.82;100.00
61506;BME280;47366;51.916;4.574;2023-02-21T05:27:40;102132.81;;;7.84;100.00
61506;BME280;47366;51.916;4.574;2023-02-21T05:30:07;102141.78;;;7.85;100.00
61506;BME280;47366;51.916;4.574;2023-02-21T05:32:32;102132.81;;;7.84;100.00
61506;BME280;47366;51.916;4.574;2023-02-21T05:34:58;102123.75;;;7.87;100.00
61506;BME280;47366;51.916;4.574;2023-02-21T05:37:23;102129.13;;;7.87;100.00
61506;BME280;47366;51.916;4.574;2023-02-21T05:39:48;102123.75;;;7.87;100.00
61506;BME280;47366;51.916;4.574;2023-02-21T05:42:14;102119.22;;;7.87;100.00
61506;BME280;47366;51.916;4.574;2023-02-21T05:44:39;102119.31;;;7.84;100.00
61506;BME280;47366;51.916;4.574;2023-02-21T05:47:04;102122.91;;;7.85;100.00
61506;BME280;47366;51.916;4.574;2023-02-21T05:49:32;102121.91;;;7.89;100.00
61506;BME280;47366;51.916;4.574;2023-02-21T05:51:58;102131.75;;;7.90;100.00
61506;BME280;47366;51.916;4.574;2023-02-21T05:54:23;102125.50;;;7.88;100.00
61506;BME280;47366;51.916;4.574;2023-02-21T05:56:49;102123.75;;;7.87;100.00
61506;BME280;47366;51.916;4.574;2023-02-21T05:59:16;102126.34;;;7.90;100.00
61506;BME280;47366;51.916;4.574;2023-02-21T06:01:43;102124.59;;;7.89;100.00
61506;BME280;47366;51.916;4.574;2023-02-21T06:04:09;102129.03;;;7.90;100.00
61506;BME280;47366;51.916;4.574;2023-02-21T06:06:34;102125.47;;;7.90;100.00
61506;BME280;47366;51.916;4.574;2023-02-21T06:09:00;102126.47;;;7.85;100.00
61506;BME280;47366;51.916;4.574;2023-02-21T06:11:28;102132.75;;;7.86;100.00
61506;BME280;47366;51.916;4.574;2023-02-21T06:13:58;102135.41;;;7.87;100.00
61506;BME280;47366;51.916;4.574;2023-02-21T06:16:23;102131.84;;;7.87;100.00
61506;BME280;47366;51.916;4.574;2023-02-21T06:18:54;102129.22;;;7.84;100.00
61506;BME280;47366;51.916;4.574;2023-02-21T06:21:20;102120.22;;;7.85;100.00
61506;BME280;47366;51.916;4.574;2023-02-21T06:23:45;102123.81;;;7.84;100.00
61506;BME280;47366;51.916;4.574;2023-02-21T06:26:11;102130.03;;;7.87;100.00
61506;BME280;47366;51.916;4.574;2023-02-21T06:28:37;102129.19;;;7.85;100.00
61506;BME280;47366;51.916;4.574;2023-02-21T06:31:03;102126.44;;;7.87;100.00
61506;BME280;47366;51.916;4.574;2023-02-21T06:33:28;102125.59;;;7.85;100.00
61506;BME280;47366;51.916;4.574;2023-02-21T06:35:54;102129.22;;;7.84;100.00
61506;BME280;47366;51.916;4.574;2023-02-21T06:38:19;102119.31;;;7.84;100.00
61506;BME280;47366;51.916;4.574;2023-02-21T06:40:45;102128.34;;;7.83;100.00
61506;BME280;47366;51.916;4.574;2023-02-21T06:43:10;102138.25;;;7.83;100.00
61506;BME280;47366;51.916;4.574;2023-02-21T06:45:35;102154.44;;;7.83;100.00
61506;BME280;47366;51.916;4.574;2023-02-21T06:48:01;102147.19;;;7.85;100.00
61506;BME280;47366;51.916;4.574;2023-02-21T06:50:26;102155.28;;;7.85;100.00
61506;BME280;47366;51.916;4.574;2023-02-21T06:52:51;102149.00;;;7.84;100.00
61506;BME280;47366;51.916;4.574;2023-02-21T06:55:20;102153.41;;;7.87;100.00
61506;BME280;47366;51.916;4.574;2023-02-21T06:57:47;102151.56;;;7.89;100.00
61506;BME280;47366;51.916;4.574;2023-02-21T07:00:13;102148.88;;;7.89;100.00
61506;BME280;47366;51.916;4.574;2023-02-21T07:02:39;102145.25;;;7.88;100.00
61506;BME280;47366;51.916;4.574;2023-02-21T07:05:04;102141.66;;;7.90;100.00
61506;BME280;47366;51.916;4.574;2023-02-21T07:07:30;102144.34;;;7.90;100.00
61506;BME280;47366;51.916;4.574;2023-02-21T07:09:55;102140.78;;;7.89;100.00
61506;BME280;47366;51.916;4.574;2023-02-21T07:12:21;102157.78;;;7.91;100.00
61506;BME280;47366;51.916;4.574;2023-02-21T07:14:46;102140.78;;;7.89;100.00
61506;BME280;47366;51.916;4.574;2023-02-21T07:17:11;102146.97;;;7.91;100.00
61506;BME280;47366;51.916;4.574;2023-02-21T07:19:37;102153.28;;;7.92;100.00
61506;BME280;47366;51.916;4.574;2023-02-21T07:22:02;102151.47;;;7.92;100.00
61506;BME280;47366;51.916;4.574;2023-02-21T07:24:27;102156.88;;;7.92;100.00
61506;BME280;47366;51.916;4.574;2023-02-21T07:26:53;102147.88;;;7.92;100.00
61506;BME280;47366;51.916;4.574;2023-02-21T07:29:19;102145.13;;;7.93;100.00
61506;BME280;47366;51.916;4.574;2023-02-21T07:31:44;102146.81;;;7.97;100.00
61506;BME280;47366;51.916;4.574;2023-02-21T07:34:09;102140.56;;;7.95;100.00
61506;BME280;47366;51.916;4.574;2023-02-21T07:36:37;102143.16;;;7.98;100.00
61506;BME280;47366;51.916;4.574;2023-02-21T07:39:02;102140.53;;;7.97;100.00
61506;BME280;47366;51.916;4.574;2023-02-21T07:41:28;102150.47;;;7.96;100.00
61506;BME280;47366;51.916;4.574;2023-02-21T07:43:53;102145.06;;;7.96;100.00
61506;BME280;47366;51.916;4.574;2023-02-21T07:46:19;102143.28;;;7.95;100.00
61506;BME280;47366;51.916;4.574;2023-02-21T07:48:45;102152.25;;;7.96;100.00
61506;BME280;47366;51.916;4.574;2023-02-21T07:51:10;102151.38;;;7.95;100.00
61506;BME280;47366;51.916;4.574;2023-02-21T07:53:36;102150.34;;;7.99;100.00
61506;BME280;47366;51.916;4.574;2023-02-21T07:56:02;102146.78;;;7.99;100.00
61506;BME280;47366;51.916;4.574;2023-02-21T07:58:27;102145.00;;;7.98;100.00
61506;BME280;47366;51.916;4.574;2023-02-21T08:00:53;102142.25;;;7.99;100.00
61506;BME280;47366;51.916;4.574;2023-02-21T08:03:20;102143.13;;;8.00;100.00
61506;BME280;47366;51.916;4.574;2023-02-21T08:05:46;102144.09;;;7.99;100.00
61506;BME280;47366;51.916;4.574;2023-02-21T08:08:11;102149.41;;;8.00;100.00
61506;BME280;47366;51.916;4.574;2023-02-21T08:10:38;102150.25;;;8.02;100.00
61506;BME280;47366;51.916;4.574;2023-02-21T08:13:04;102146.72;;;8.00;100.00
61506;BME280;47366;51.916;4.574;2023-02-21T08:15:29;102154.81;;;8.00;100.00
61506;BME280;47366;51.916;4.574;2023-02-21T08:17:55;102154.75;;;8.03;100.00
61506;BME280;47366;51.916;4.574;2023-02-21T08:20:20;102150.25;;;8.02;100.00
61506;BME280;47366;51.916;4.574;2023-02-21T08:22:46;102142.16;;;8.02;100.00
61506;BME280;47366;51.916;4.574;2023-02-21T08:25:12;102144.81;;;8.04;100.00
61506;BME280;47366;51.916;4.574;2023-02-21T08:27:39;102153.69;;;8.07;100.00
61506;BME280;47366;51.916;4.574;2023-02-21T08:30:06;102158.13;;;8.10;100.00
61506;BME280;47366;51.916;4.574;2023-02-21T08:32:33;102151.84;;;8.09;100.00
61506;BME280;47366;51.916;4.574;2023-02-21T08:34:59;102152.91;;;8.04;100.00
61506;BME280;47366;51.916;4.574;2023-02-21T08:37:25;102155.63;;;8.04;100.00
61506;BME280;47366;51.916;4.574;2023-02-21T08:39:57;102148.44;;;8.03;100.00
61506;BME280;47366;51.916;4.574;2023-02-21T08:42:23;102149.28;;;8.05;100.00
61506;BME280;47366;51.916;4.574;2023-02-21T08:44:48;102150.13;;;8.07;100.00
61506;BME280;47366;51.916;4.574;2023-02-21T08:47:15;102154.53;;;8.09;100.00
61506;BME280;47366;51.916;4.574;2023-02-21T08:49:47;102154.63;;;8.06;100.00
61506;BME280;47366;51.916;4.574;2023-02-21T08:52:14;102162.59;;;8.11;100.00
61506;BME280;47366;51.916;4.574;2023-02-21T08:54:41;102150.09;;;8.08;100.00
61506;BME280;47366;51.916;4.574;2023-02-21T08:57:06;102153.63;;;8.11;100.00
61506;BME280;47366;51.916;4.574;2023-02-21T08:59:32;102151.72;;;8.13;100.00
61506;BME280;47366;51.916;4.574;2023-02-21T09:01:59;102146.41;;;8.11;100.00
61506;BME280;47366;51.916;4.574;2023-02-21T09:04:25;102155.38;;;8.12;100.00
61506;BME280;47366;51.916;4.574;2023-02-21T09:06:53;102153.63;;;8.11;100.00
61506;BME280;47366;51.916;4.574;2023-02-21T09:09:18;102158.91;;;8.14;100.00
61506;BME280;47366;51.916;4.574;2023-02-21T09:11:45;102142.72;;;8.14;100.00
61506;BME280;47366;51.916;4.574;2023-02-21T09:14:12;102140.81;;;8.17;100.00
61506;BME280;47366;51.916;4.574;2023-02-21T09:16:38;102139.88;;;8.18;100.00
61506;BME280;47366;51.916;4.574;2023-02-21T09:19:03;102137.22;;;8.17;100.00
61506;BME280;47366;51.916;4.574;2023-02-21T09:21:31;102138.06;;;8.19;100.00
61506;BME280;47366;51.916;4.574;2023-02-21T09:23:57;102137.19;;;8.18;100.00
61506;BME280;47366;51.916;4.574;2023-02-21T09:26:23;102138.03;;;8.20;100.00
61506;BME280;47366;51.916;4.574;2023-02-21T09:28:50;102133.50;;;8.21;100.00
61506;BME280;47366;51.916;4.574;2023-02-21T09:31:16;102133.53;;;8.19;100.00
61506;BME280;47366;51.916;4.574;2023-02-21T09:33:42;102139.81;;;8.20;100.00
61506;BME280;47366;51.916;4.574;2023-02-21T09:36:08;102137.13;;;8.20;100.00
61506;BME280;47366;51.916;4.574;2023-02-21T09:38:34;102141.50;;;8.24;100.00
61506;BME280;47366;51.916;4.574;2023-02-21T09:41:03;102126.25;;;8.23;100.00
61506;BME280;47366;51.916;4.574;2023-02-21T09:43:38;102117.31;;;8.21;100.00
61506;BME280;47366;51.916;4.574;2023-02-21T09:46:13;102122.59;;;8.24;100.00
61506;BME280;47366;51.916;4.574;2023-02-21T09:48:42;102127.13;;;8.23;100.00
61506;BME280;47366;51.916;4.574;2023-02-21T09:51:10;102132.38;;;8.28;100.00
61506;BME280;47366;51.916;4.574;2023-02-21T09:53:41;102133.38;;;8.25;100.00
61506;BME280;47366;51.916;4.574;2023-02-21T09:56:32;102123.59;;;8.21;100.00
61506;BME280;47366;51.916;4.574;2023-02-21T09:58:58;102129.88;;;8.22;100.00
61506;BME280;47366;51.916;4.574;2023-02-21T10:04:58;102128.84;;;8.26;100.00
61506;BME280;47366;51.916;4.574;2023-02-21T10:07:46;102125.31;;;8.24;100.00
61506;BME280;47366;51.916;4.574;2023-02-21T10:10:32;102129.78;;;8.25;100.00
61506;BME280;47366;51.916;4.574;2023-02-21T10:15:55;102137.09;;;8.21;100.00
61506;BME280;47366;51.916;4.574;2023-02-21T10:20:52;102125.41;;;8.21;100.00
61506;BME280;47366;51.916;4.574;2023-02-21T10:26:00;102127.22;;;8.20;100.00
61506;BME280;47366;51.916;4.574;2023-02-21T10:28:27;102125.38;;;8.22;100.00
61506;BME280;47366;51.916;4.574;2023-02-21T10:30:57;102133.41;;;8.24;100.00
61506;BME280;47366;51.916;4.574;2023-02-21T10:33:24;102132.56;;;8.22;100.00
61506;BME280;47366;51.916;4.574;2023-02-21T10:35:49;102118.22;;;8.20;100.00
61506;BME280;47366;51.916;4.574;2023-02-21T10:38:22;102125.41;;;8.21;100.00
61506;BME280;47366;51.916;4.574;2023-02-21T10:41:01;102118.16;;;8.23;100.00
61506;BME280;47366;51.916;4.574;2023-02-21T10:43:34;102123.56;;;8.23;100.00
61506;BME280;47366;51.916;4.574;2023-02-21T10:46:22;102120.84;;;8.23;100.00
61506;BME280;47366;51.916;4.574;2023-02-21T10:48:52;102119.00;;;8.25;100.00
61506;BME280;47366;51.916;4.574;2023-02-21T10:51:30;102117.22;;;8.24;100.00
61506;BME280;47366;51.916;4.574;2023-02-21T10:56:41;102118.00;;;8.27;100.00
61506;BME280;47366;51.916;4.574;2023-02-21T10:59:07;102112.66;;;8.26;100.00
61506;BME280;47366;51.916;4.574;2023-02-21T11:01:44;102109.91;;;8.27;100.00
61506;BME280;47366;51.916;4.574;2023-02-21T11:07:00;102104.56;;;8.26;100.00
61506;BME280;47366;51.916;4.574;2023-02-21T11:09:30;102105.34;;;8.29;100.00
61506;BME280;47366;51.916;4.574;2023-02-21T11:12:21;102114.31;;;8.30;100.00
61506;BME280;47366;51.916;4.574;2023-02-21T11:17:25;102107.97;;;8.31;100.00
61506;BME280;47366;51.916;4.574;2023-02-21T11:20:02;102098.06;;;8.32;100.00
61506;BME280;47366;51.916;4.574;2023-02-21T11:22:41;102091.69;;;8.34;100.00
61506;BME280;47366;51.916;4.574;2023-02-21T11:27:36;102085.34;;;8.37;100.00
61506;BME280;47366;51.916;4.574;2023-02-21T11:30:22;102089.72;;;8.41;100.00
61506;BME280;47366;51.916;4.574;2023-02-21T11:32:56;102092.44;;;8.39;100.00
61506;BME280;47366;51.916;4.574;2023-02-21T11:35:25;102087.88;;;8.41;100.00
61506;BME280;47366;51.916;4.574;2023-02-21T11:40:42;102078.72;;;8.47;100.00
61506;BME280;47366;51.916;4.574;2023-02-21T11:43:25;102078.88;;;8.42;100.00
61506;BME280;47366;51.916;4.574;2023-02-21T11:51:57;102065.84;;;8.55;100.00
61506;BME280;47366;51.916;4.574;2023-02-21T11:54:29;102065.00;;;8.53;100.00
61506;BME280;47366;51.916;4.574;2023-02-21T11:57:02;102065.00;;;8.53;100.00
61506;BME280;47366;51.916;4.574;2023-02-21T11:59:52;102067.53;;;8.58;100.00
61506;BME280;47366;51.916;4.574;2023-02-21T12:08:03;102050.28;;;8.63;100.00
61506;BME280;47366;51.916;4.574;2023-02-21T12:15:58;102049.81;;;8.77;100.00
61506;BME280;47366;51.916;4.574;2023-02-21T12:18:56;102052.66;;;8.73;100.00
61506;BME280;47366;51.916;4.574;2023-02-21T12:21:31;102047.34;;;8.69;100.00
61506;BME280;47366;51.916;4.574;2023-02-21T12:26:55;102044.72;;;8.68;100.00
61506;BME280;47366;51.916;4.574;2023-02-21T12:38:20;102041.91;;;8.71;100.00
61506;BME280;47366;51.916;4.574;2023-02-21T12:44:16;102036.53;;;8.69;100.00
61506;BME280;47366;51.916;4.574;2023-02-21T12:46:51;102031.28;;;8.65;100.00
61506;BME280;47366;51.916;4.574;2023-02-21T12:49:22;102035.78;;;8.66;100.00
61506;BME280;47366;51.916;4.574;2023-02-21T12:52:05;102037.38;;;8.71;100.00
61506;BME280;47366;51.916;4.574;2023-02-21T12:57:26;102030.41;;;8.64;100.00
61506;BME280;47366;51.916;4.574;2023-02-21T13:05:46;102025.84;;;8.66;100.00
61506;BME280;47366;51.916;4.574;2023-02-21T13:08:26;102028.34;;;8.73;100.00
61506;BME280;47366;51.916;4.574;2023-02-21T13:11:25;102024.91;;;8.67;100.00
61506;BME280;47366;51.916;4.574;2023-02-21T13:13:52;102022.38;;;8.63;100.00
61506;BME280;47366;51.916;4.574;2023-02-21T13:16:17;102015.44;;;8.56;100.00
61506;BME280;47366;51.916;4.574;2023-02-21T13:18:48;102020.72;;;8.59;100.00
61506;BME280;47366;51.916;4.574;2023-02-21T13:21:58;102022.59;;;8.57;100.00
61506;BME280;47366;51.916;4.574;2023-02-21T13:24:54;102017.91;;;8.62;100.00
61506;BME280;47366;51.916;4.574;2023-02-21T13:27:41;102012.53;;;8.60;100.00
61506;BME280;47366;51.916;4.574;2023-02-21T13:30:37;102015.19;;;8.62;100.00
61506;BME280;47366;51.916;4.574;2023-02-21T13:33:02;102005.34;;;8.61;100.00
61506;BME280;47366;51.916;4.574;2023-02-21T13:35:38;102001.94;;;8.56;100.00
61506;BME280;47366;51.916;4.574;2023-02-21T13:38:06;102008.13;;;8.58;100.00
61506;BME280;47366;51.916;4.574;2023-02-21T13:40:36;102005.44;;;8.58;100.00
61506;BME280;47366;51.916;4.574;2023-02-21T13:43:11;101998.44;;;8.52;100.00
61506;BME280;47366;51.916;4.574;2023-02-21T13:45:37;101996.72;;;8.49;100.00
61506;BME280;47366;51.916;4.574;2023-02-21T13:53:16;101998.69;;;8.44;100.00
61506;BME280;47366;51.916;4.574;2023-02-21T13:58:38;101992.56;;;8.39;100.00
61506;BME280;47366;51.916;4.574;2023-02-21T14:03:51;101981.94;;;8.33;100.00
61506;BME280;47366;51.916;4.574;2023-02-21T14:06:29;101982.75;;;8.37;100.00
61506;BME280;47366;51.916;4.574;2023-02-21T14:09:11;101981.06;;;8.33;100.00
61506;BME280;47366;51.916;4.574;2023-02-21T14:11:46;101979.25;;;8.33;100.00
61506;BME280;47366;51.916;4.574;2023-02-21T14:14:28;101979.25;;;8.33;100.00
61506;BME280;47366;51.916;4.574;2023-02-21T14:22:09;101970.28;;;8.33;100.00
61506;BME280;47366;51.916;4.574;2023-02-21T14:24:38;101973.13;;;8.28;100.00
61506;BME280;47366;51.916;4.574;2023-02-21T14:29:41;101969.91;;;8.17;100.00
61506;BME280;47366;51.916;4.574;2023-02-21T14:34:37;101968.16;;;8.16;100.00
61506;BME280;47366;51.916;4.574;2023-02-21T14:39:54;101966.66;;;8.05;100.00
61506;BME280;47366;51.916;4.574;2023-02-21T14:46:09;101963.63;;;8.16;100.00
61506;BME280;47366;51.916;4.574;2023-02-21T14:57:14;101953.59;;;8.20;100.00
61506;BME280;47366;51.916;4.574;2023-02-21T15:02:33;101949.16;;;8.19;100.00
61506;BME280;47366;51.916;4.574;2023-02-21T15:05:26;101959.97;;;8.17;100.00
61506;BME280;47366;51.916;4.574;2023-02-21T15:10:26;101952.00;;;8.14;100.00
61506;BME280;47366;51.916;4.574;2023-02-21T15:12:58;101952.03;;;8.13;100.00
61506;BME280;47366;51.916;4.574;2023-02-21T15:15:40;101948.53;;;8.11;100.00
61506;BME280;47366;51.916;4.574;2023-02-21T15:18:07;101958.34;;;8.13;100.00
61506;BME280;47366;51.916;4.574;2023-02-21T15:20:36;101956.47;;;8.15;100.00
61506;BME280;47366;51.916;4.574;2023-02-21T15:25:34;101956.41;;;8.17;100.00
61506;BME280;47366;51.916;4.574;2023-02-21T15:28:02;101955.53;;;8.16;100.00
61506;BME280;47366;51.916;4.574;2023-02-21T15:30:34;101949.09;;;8.20;100.00
61506;BME280;47366;51.916;4.574;2023-02-21T15:33:03;101951.84;;;8.19;100.00
61506;BME280;47366;51.916;4.574;2023-02-21T15:35:38;101944.84;;;8.13;100.00
61506;BME280;47366;51.916;4.574;2023-02-21T15:38:14;101948.47;;;8.12;100.00
61506;BME280;47366;51.916;4.574;2023-02-21T15:40:40;101941.19;;;8.14;100.00
61506;BME280;47366;51.916;4.574;2023-02-21T15:43:06;101951.16;;;8.12;100.00